Time;durP1;ratioP1;P1;durP2;ratioP2;P2;SDS_P1;SDS_P2;PMS_P1;PMS_P2;Temp;Humidity;BMP_temperature;BMP_pressure;BME280_temperature;BME280_humidity;BME280_pressure;Samples;Min_cycle;Max_cycle;Signal;HPM_P1;HPM_P2
2023/07/05 00:02:08;;;;;;;;;;;;;;;23.05;46.21;95418.41;10399110;28;1973;-69
2023/07/05 00:07:08;;;;;;;;;;;;;;;22.98;46.40;95405.59;10402429;28;1950;-69
2023/07/05 00:12:08;;;;;;;;;;;;;;;22.98;46.29;95402.94;10404641;28;1951;-70
2023/07/05 00:17:09;;;;;;;;;;;;;;;22.94;46.37;95401.97;10404616;28;1882;-69
2023/07/05 00:22:09;;;;;;;;;;;;;;;22.96;46.33;95409.59;10407172;28;1972;-68
2023/07/05 00:27:09;;;;;;;;;;;;;;;22.98;46.41;95402.19;10406786;28;1899;-68
2023/07/05 00:32:09;;;;;;;;;;;;;;;22.97;46.24;95403.25;10410444;28;2247;-68
2023/07/05 00:37:10;;;;;;;;;;;;;;;22.97;46.55;95406.69;10403244;28;1936;-68
2023/07/05 00:42:10;;;;;;;;;;;;;;;22.97;46.41;95397.97;10404397;28;4561;-68
2023/07/05 00:47:19;;;;;;;;;;;;;;;22.98;46.17;95386.31;10404544;28;2005;-68
2023/07/05 00:52:19;;;;;;;;;;;;;;;22.96;46.39;95389.25;10378923;28;2103;-67
2023/07/05 00:57:38;;;;;;;;;;;;;;;22.97;46.23;95384.75;10406409;28;2101;-68
2023/07/05 01:02:39;;;;;;;;;;;;;;;22.96;46.12;95388.44;10405643;28;2000;-67
2023/07/05 01:07:39;;;;;;;;;;;;;;;22.94;46.18;95401.97;10385662;28;2042;-69
2023/07/05 01:12:58;;;;;;;;;;;;;;;22.92;46.21;95392.75;10401421;28;2093;-67
2023/07/05 01:18:01;;;;;;;;;;;;;;;22.91;46.16;95402.56;10385463;28;2029;-67
2023/07/05 01:23:07;;;;;;;;;;;;;;;22.88;46.29;95412.94;10400914;28;1959;-67
2023/07/05 01:28:27;;;;;;;;;;;;;;;22.88;46.23;95485.09;10400123;28;2186;-69
2023/07/05 01:33:30;;;;;;;;;;;;;;;22.88;46.48;95442.81;10403854;28;2067;-67
2023/07/05 01:38:30;;;;;;;;;;;;;;;22.89;46.53;95449.66;10387211;28;1963;-67
2023/07/05 01:43:31;;;;;;;;;;;;;;;22.89;46.26;95441.75;10399646;28;4494;-68
2023/07/05 01:48:37;;;;;;;;;;;;;;;22.93;46.34;95444.56;10400893;28;2033;-68
2023/07/05 01:53:45;;;;;;;;;;;;;;;22.92;46.42;95446.41;10402195;28;1997;-68
2023/07/05 01:58:45;;;;;;;;;;;;;;;22.95;46.24;95434.47;10385760;28;2114;-68
2023/07/05 02:03:49;;;;;;;;;;;;;;;22.96;46.13;95425.44;10403941;28;2097;-68
2023/07/05 02:08:49;;;;;;;;;;;;;;;22.95;46.20;95410.69;10385902;28;2021;-68
2023/07/05 02:13:50;;;;;;;;;;;;;;;22.97;46.17;95408.53;10403771;28;2141;-67
2023/07/05 02:18:50;;;;;;;;;;;;;;;23.00;46.21;95397.38;10398228;28;2053;-68
2023/07/05 02:23:50;;;;;;;;;;;;;;;23.01;46.23;95396.28;10400659;28;2183;-68
2023/07/05 02:28:51;;;;;;;;;;;;;;;23.02;46.24;95388.03;10399931;28;2155;-68
2023/07/05 02:33:51;;;;;;;;;;;;;;;23.04;46.20;95377.19;10400391;28;2391;-69
2023/07/05 02:38:51;;;;;;;;;;;;;;;23.06;46.36;95372.41;10399693;28;2059;-69
2023/07/05 02:43:51;;;;;;;;;;;;;;;23.07;46.24;95366.00;10398183;28;4518;-68
2023/07/05 02:48:55;;;;;;;;;;;;;;;23.08;45.98;95370.25;10380179;28;2030;-69
2023/07/05 02:53:55;;;;;;;;;;;;;;;23.06;46.08;95367.09;10383675;28;2000;-68
2023/07/05 02:58:56;;;;;;;;;;;;;;;23.05;46.06;95376.09;10398100;28;2047;-68
2023/07/05 03:03:56;;;;;;;;;;;;;;;23.07;46.03;95373.94;10402713;28;2098;-69
2023/07/05 03:08:56;;;;;;;;;;;;;;;23.06;46.05;95367.88;10409692;28;1989;-68
2023/07/05 03:13:56;;;;;;;;;;;;;;;23.07;46.04;95360.72;10401403;28;2034;-68
2023/07/05 03:18:57;;;;;;;;;;;;;;;23.06;46.28;95361.81;10397184;28;2034;-68
2023/07/05 03:23:57;;;;;;;;;;;;;;;23.06;45.91;95361.81;10381252;28;1980;-69
2023/07/05 03:28:57;;;;;;;;;;;;;;;23.05;46.09;95363.69;10396833;28;1971;-69
2023/07/05 03:33:57;;;;;;;;;;;;;;;23.04;45.93;95369.28;10399356;28;1982;-69
2023/07/05 03:38:58;;;;;;;;;;;;;;;23.02;45.96;95368.78;10399712;28;2162;-69
2023/07/05 03:43:58;;;;;;;;;;;;;;;22.98;46.15;95358.00;10398605;28;4577;-69
2023/07/05 03:48:59;;;;;;;;;;;;;;;22.95;45.99;95368.41;10399227;28;1990;-69
2023/07/05 03:53:59;;;;;;;;;;;;;;;22.93;46.26;95373.19;10415036;28;2010;-68
2023/07/05 03:58:59;;;;;;;;;;;;;;;22.94;46.32;95366.81;10411284;28;2097;-69
2023/07/05 04:04:00;;;;;;;;;;;;;;;22.93;46.14;95366.06;10411927;28;1992;-69
2023/07/05 04:09:00;;;;;;;;;;;;;;;22.91;45.99;95364.78;10407421;28;1994;-69
2023/07/05 04:14:00;;;;;;;;;;;;;;;22.91;46.22;95354.22;10391961;28;1993;-68
2023/07/05 04:19:01;;;;;;;;;;;;;;;22.89;46.17;95364.31;10409271;28;2238;-68
2023/07/05 04:24:01;;;;;;;;;;;;;;;22.85;46.12;95369.41;10413020;28;2042;-68
2023/07/05 04:29:01;;;;;;;;;;;;;;;22.83;46.05;95361.00;10409555;28;2038;-68
2023/07/05 04:34:02;;;;;;;;;;;;;;;22.83;46.22;95363.63;10410726;28;2071;-69
2023/07/05 04:39:02;;;;;;;;;;;;;;;22.85;46.25;95363.34;10409152;28;1988;-63
2023/07/05 04:44:04;;;;;;;;;;;;;;;22.84;46.27;95365.19;10412975;28;4434;-64
2023/07/05 04:49:04;;;;;;;;;;;;;;;22.85;46.42;95371.25;10411066;28;2018;-68
2023/07/05 04:54:05;;;;;;;;;;;;;;;22.86;46.13;95370.16;10412841;28;2109;-68
2023/07/05 04:59:05;;;;;;;;;;;;;;;22.86;46.16;95375.44;10406288;28;1969;-68
2023/07/05 05:04:05;;;;;;;;;;;;;;;22.88;46.37;95383.88;10404685;28;2069;-68
2023/07/05 05:09:06;;;;;;;;;;;;;;;22.85;45.97;95389.75;10401369;28;2145;-68
2023/07/05 05:14:06;;;;;;;;;;;;;;;22.84;46.11;95391.63;10407403;28;2544;-67
2023/07/05 05:19:06;;;;;;;;;;;;;;;22.84;45.97;95414.59;10403727;28;2017;-67
2023/07/05 05:24:07;;;;;;;;;;;;;;;22.85;45.99;95439.97;10402472;28;1976;-66
2023/07/05 05:29:07;;;;;;;;;;;;;;;22.85;45.98;95517.41;10404495;28;2019;-66
2023/07/05 05:34:07;;;;;;;;;;;;;;;22.84;46.06;95504.47;10404529;28;1995;-66
2023/07/05 05:39:08;;;;;;;;;;;;;;;22.84;46.15;95518.47;10388862;28;2111;-67
2023/07/05 05:44:08;;;;;;;;;;;;;;;22.84;46.19;95529.03;10403403;28;4628;-67
2023/07/05 05:49:08;;;;;;;;;;;;;;;22.84;46.20;95528.25;10401230;28;2133;-67
2023/07/05 05:54:09;;;;;;;;;;;;;;;22.82;46.28;95519.84;10386090;28;2098;-68
2023/07/05 05:59:09;;;;;;;;;;;;;;;22.85;46.26;95520.06;10402417;28;2032;-67
2023/07/05 06:04:10;;;;;;;;;;;;;;;22.85;46.47;95508.69;10404827;28;2034;-66
2023/07/05 06:09:10;;;;;;;;;;;;;;;22.83;46.44;95509.00;10400713;28;2285;-68
2023/07/05 06:14:10;;;;;;;;;;;;;;;22.86;46.63;95520.81;10402248;28;2213;-68
2023/07/05 06:19:10;;;;;;;;;;;;;;;22.89;46.45;95520.25;10402281;28;1961;-68
2023/07/05 06:24:11;;;;;;;;;;;;;;;22.86;46.76;95512.88;10403678;28;1959;-65
2023/07/05 06:29:11;;;;;;;;;;;;;;;22.87;46.58;95511.81;10402439;28;1946;-68
2023/07/05 06:34:11;;;;;;;;;;;;;;;22.85;46.70;95509.47;10384150;28;1912;-68
2023/07/05 06:39:11;;;;;;;;;;;;;;;22.83;46.89;95521.41;10397903;28;1921;-68
2023/07/05 06:44:12;;;;;;;;;;;;;;;22.85;46.79;95521.91;10397407;28;1985;-68
2023/07/05 06:49:12;;;;;;;;;;;;;;;22.84;46.70;95528.25;10386231;28;1905;-69
2023/07/05 06:54:12;;;;;;;;;;;;;;;22.85;46.82;95525.34;10391832;28;1953;-69
2023/07/05 06:59:12;;;;;;;;;;;;;;;22.88;47.04;95531.88;10387872;28;2175;-69
2023/07/05 07:04:13;;;;;;;;;;;;;;;22.87;47.01;95538.25;10390337;28;2047;-70
2023/07/05 07:09:13;;;;;;;;;;;;;;;22.88;47.15;95550.38;10390988;28;2389;-70
2023/07/05 07:14:13;;;;;;;;;;;;;;;22.87;47.12;95556.75;10389677;28;1859;-70
2023/07/05 07:19:13;;;;;;;;;;;;;;;22.84;47.18;95566.03;10385378;28;1928;-70
2023/07/05 07:24:14;;;;;;;;;;;;;;;22.84;47.20;95578.47;10387396;28;1989;-70
2023/07/05 07:29:15;;;;;;;;;;;;;;;22.85;47.12;95572.91;10386798;28;2026;-69
2023/07/05 07:34:15;;;;;;;;;;;;;;;22.87;47.19;95583.19;10390217;28;1891;-69
2023/07/05 07:39:15;;;;;;;;;;;;;;;22.87;47.57;95578.69;10368648;28;2007;-67
2023/07/05 07:44:17;;;;;;;;;;;;;;;22.87;47.33;95562.03;10389617;28;4371;-68
2023/07/05 07:49:17;;;;;;;;;;;;;;;22.87;47.54;95554.09;10387538;28;1934;-68
2023/07/05 07:54:18;;;;;;;;;;;;;;;22.88;47.19;95550.38;10369941;28;1903;-68
2023/07/05 07:59:18;;;;;;;;;;;;;;;22.87;47.28;95533.75;10397123;28;1958;-69
2023/07/05 08:04:19;;;;;;;;;;;;;;;22.90;47.24;95529.72;10369545;28;2013;-69
2023/07/05 08:09:25;;;;;;;;;;;;;;;22.89;47.18;95526.31;10371001;28;2093;-68
2023/07/05 08:14:28;;;;;;;;;;;;;;;22.90;47.24;95527.06;10388657;28;1918;-69
2023/07/05 08:19:29;;;;;;;;;;;;;;;22.93;47.29;95524.66;10386112;28;1953;-69
2023/07/05 08:24:30;;;;;;;;;;;;;;;22.95;47.33;95519.06;10389594;28;2007;-68
2023/07/05 08:29:30;;;;;;;;;;;;;;;22.94;46.91;95530.69;10391268;28;2004;-68
2023/07/05 08:34:31;;;;;;;;;;;;;;;22.94;47.13;95533.34;10392119;28;1989;-69
2023/07/05 08:39:31;;;;;;;;;;;;;;;22.96;46.89;95523.25;10395277;28;2023;-69
2023/07/05 08:44:50;;;;;;;;;;;;;;;22.99;46.95;95531.41;10396682;28;4481;-68
2023/07/05 08:49:54;;;;;;;;;;;;;;;23.02;46.91;95516.81;10385327;28;1962;-69
2023/07/05 08:54:56;;;;;;;;;;;;;;;23.03;47.06;95524.44;10373639;28;2008;-68
2023/07/05 08:59:57;;;;;;;;;;;;;;;23.06;46.79;95525.72;10399930;28;2271;-69
2023/07/05 09:04:58;;;;;;;;;;;;;;;23.08;46.94;95515.66;10405992;28;1979;-69
2023/07/05 09:09:58;;;;;;;;;;;;;;;23.09;46.83;95514.56;10387977;28;1938;-68
2023/07/05 09:15:09;;;;;;;;;;;;;;;23.10;46.57;95516.91;10406655;28;1965;-69
2023/07/05 09:20:29;;;;;;;;;;;;;;;23.09;46.28;95509.25;10413589;28;1956;-69
2023/07/05 09:25:30;;;;;;;;;;;;;;;23.11;46.38;95512.41;10404924;28;1942;-69
2023/07/05 09:30:30;;;;;;;;;;;;;;;23.14;46.50;95498.59;10384918;28;1830;-70
2023/07/05 09:35:30;;;;;;;;;;;;;;;23.14;46.32;95514.47;10389935;28;1922;-69
2023/07/05 09:40:31;;;;;;;;;;;;;;;23.15;46.37;95508.09;10386137;28;1970;-69
2023/07/05 09:45:32;;;;;;;;;;;;;;;23.17;46.33;95509.34;10415354;28;4537;-69
2023/07/05 09:50:32;;;;;;;;;;;;;;;23.18;46.26;95507.50;10399586;28;1882;-69
2023/07/05 09:55:32;;;;;;;;;;;;;;;23.19;46.22;95498.47;10403068;28;1947;-70
2023/07/05 10:00:36;;;;;;;;;;;;;;;23.20;46.20;95510.63;10403381;28;1986;-69
2023/07/05 10:05:36;;;;;;;;;;;;;;;23.21;46.39;95518.25;10412597;28;1910;-69
2023/07/05 10:10:37;;;;;;;;;;;;;;;23.21;46.37;95510.34;10412442;28;1917;-68
2023/07/05 10:15:44;;;;;;;;;;;;;;;23.23;46.27;95505.53;10399154;28;1999;-68
2023/07/05 10:20:46;;;;;;;;;;;;;;;23.25;46.52;95508.66;10401352;28;1956;-69
2023/07/05 10:25:46;;;;;;;;;;;;;;;23.28;46.20;95502.00;10385969;28;2000;-68
2023/07/05 10:30:50;;;;;;;;;;;;;;;23.28;46.46;95516.03;10406245;28;2067;-68
2023/07/05 10:36:03;;;;;;;;;;;;;;;23.28;46.60;95504.66;10400898;28;2091;-68
2023/07/05 10:41:20;;;;;;;;;;;;;;;23.29;46.66;95519.41;10404189;28;4526;-68
2023/07/05 10:46:21;;;;;;;;;;;;;;;23.29;46.33;95519.41;10378686;28;1997;-68
2023/07/05 10:51:25;;;;;;;;;;;;;;;23.29;46.38;95536.09;10380706;28;3085;-69
2023/07/05 10:56:27;;;;;;;;;;;;;;;23.27;46.60;95564.69;10409719;28;1937;-71
2023/07/05 11:01:35;;;;;;;;;;;;;;;23.26;46.78;95562.34;10382308;28;1911;-69
2023/07/05 11:06:36;;;;;;;;;;;;;;;23.28;46.95;95557.53;10378678;28;2050;-69
2023/07/05 11:11:41;;;;;;;;;;;;;;;23.29;47.18;95545.88;10365104;28;1934;-69
2023/07/05 11:16:42;;;;;;;;;;;;;;;23.31;47.31;95544.50;10364088;28;1899;-69
2023/07/05 11:21:46;;;;;;;;;;;;;;;23.33;47.44;95531.00;10398685;28;1984;-69
2023/07/05 11:26:46;;;;;;;;;;;;;;;23.35;47.23;95531.50;10380667;28;1958;-69
2023/07/05 11:31:47;;;;;;;;;;;;;;;23.36;47.55;95533.06;10399124;28;1917;-70
2023/07/05 11:36:47;;;;;;;;;;;;;;;23.37;47.54;95558.44;10396040;28;2048;-70
2023/07/05 11:41:47;;;;;;;;;;;;;;;23.37;48.63;95569.00;10399221;28;4447;-70
2023/07/05 11:46:48;;;;;;;;;;;;;;;23.37;48.39;95555.78;10398502;28;2332;-69
2023/07/05 11:51:49;;;;;;;;;;;;;;;23.37;48.55;95555.78;10378989;28;2195;-70
2023/07/05 11:56:49;;;;;;;;;;;;;;;23.37;48.20;95553.13;10382058;28;2244;-70
2023/07/05 12:01:49;;;;;;;;;;;;;;;23.36;48.41;95549.72;10382474;28;2142;-69
2023/07/05 12:06:50;;;;;;;;;;;;;;;23.33;48.24;95552.16;10385133;28;2099;-70
2023/07/05 12:11:54;;;;;;;;;;;;;;;23.32;48.27;95550.63;10372477;28;2065;-70
2023/07/05 12:16:54;;;;;;;;;;;;;;;23.32;48.51;95555.91;10405562;28;1978;-69
2023/07/05 12:21:58;;;;;;;;;;;;;;;23.32;48.34;95550.63;10387229;28;1977;-70
2023/07/05 12:26:58;;;;;;;;;;;;;;;23.31;48.42;95554.28;10376444;28;1915;-69
2023/07/05 12:32:02;;;;;;;;;;;;;;;23.32;48.57;95561.97;10383318;28;1973;-70
2023/07/05 12:37:02;;;;;;;;;;;;;;;23.35;48.36;95571.16;10394802;28;1899;-69
2023/07/05 12:42:05;;;;;;;;;;;;;;;23.35;48.70;95584.38;10398263;28;2130;-69
2023/07/05 12:47:05;;;;;;;;;;;;;;;;;;10379622;28;1958;-70
2023/07/05 12:52:14;;;;;;;;;;;;;;;23.35;48.46;95597.63;10396892;28;1937;-69
2023/07/05 12:57:19;;;;;;;;;;;;;;;23.32;48.76;95609.59;10379037;28;1934;-69
2023/07/05 13:02:19;;;;;;;;;;;;;;;;;;10378194;28;2006;-69
2023/07/05 13:07:21;;;;;;;;;;;;;;;23.35;48.60;95613.50;10394389;28;1878;-69
2023/07/05 13:12:21;;;;;;;;;;;;;;;23.33;48.96;95605.06;10373754;28;1898;-69
2023/07/05 13:17:25;;;;;;;;;;;;;;;23.30;48.91;95606.44;10394318;28;1903;-69
2023/07/05 13:22:26;;;;;;;;;;;;;;;23.33;48.68;95608.50;10393115;28;2112;-70
2023/07/05 13:27:28;;;;;;;;;;;;;;;23.34;48.63;95611.94;10403113;28;1894;-70
2023/07/05 13:32:29;;;;;;;;;;;;;;;23.34;48.88;95625.16;10398209;28;1954;-70
2023/07/05 13:37:30;;;;;;;;;;;;;;;;;;10392463;28;1918;-70
2023/07/05 13:42:30;;;;;;;;;;;;;;;23.36;48.93;95615.06;10394936;28;2235;-70
2023/07/05 13:47:30;;;;;;;;;;;;;;;23.37;49.08;95621.91;10399231;28;1911;-70
2023/07/05 13:52:31;;;;;;;;;;;;;;;23.38;48.77;95605.78;10372224;28;1903;-69
2023/07/05 13:57:32;;;;;;;;;;;;;;;23.39;48.87;95607.31;10372794;28;1981;-70
2023/07/05 14:02:33;;;;;;;;;;;;;;;23.40;48.88;95608.91;10372795;28;2015;-70
2023/07/05 14:07:33;;;;;;;;;;;;;;;23.42;48.87;95593.53;10390194;28;1915;-70
2023/07/05 14:12:34;;;;;;;;;;;;;;;23.43;48.96;95605.66;10387579;28;2020;-69
2023/07/05 14:17:34;;;;;;;;;;;;;;;23.45;48.78;95603.50;10388256;28;2009;-70
2023/07/05 14:22:34;;;;;;;;;;;;;;;23.46;48.88;95593.72;10373114;28;1977;-69
2023/07/05 14:27:35;;;;;;;;;;;;;;;23.47;48.82;95599.78;10392181;28;1999;-70
2023/07/05 14:32:35;;;;;;;;;;;;;;;23.46;48.91;95599.00;10392008;28;1983;-69
2023/07/05 14:37:35;;;;;;;;;;;;;;;23.47;48.84;95607.72;10386125;28;2347;-70
2023/07/05 14:42:35;;;;;;;;;;;;;;;23.45;48.88;95590.25;10387844;28;4455;-70
2023/07/05 14:47:36;;;;;;;;;;;;;;;23.45;48.55;95592.16;10389123;28;1906;-69
2023/07/05 14:52:36;;;;;;;;;;;;;;;23.45;48.75;95589.50;10388420;28;1993;-70
2023/07/05 14:57:36;;;;;;;;;;;;;;;23.45;48.68;95590.25;10371146;28;2046;-70
2023/07/05 15:02:37;;;;;;;;;;;;;;;23.48;48.60;95594.19;10385949;28;1941;-68
2023/07/05 15:07:38;;;;;;;;;;;;;;;23.48;48.88;95596.84;10369090;28;1894;-69
2023/07/05 15:12:39;;;;;;;;;;;;;;;23.49;48.55;95593.13;10387814;28;1886;-69
2023/07/05 15:17:39;;;;;;;;;;;;;;;23.49;48.73;95587.03;10388272;28;1957;-69
2023/07/05 15:22:40;;;;;;;;;;;;;;;23.50;48.57;95597.31;10389461;28;1981;-68
2023/07/05 15:27:40;;;;;;;;;;;;;;;23.50;48.59;95589.38;10373243;28;2228;-69
2023/07/05 15:32:41;;;;;;;;;;;;;;;23.51;48.44;95590.19;10392067;28;2341;-69
2023/07/05 15:37:41;;;;;;;;;;;;;;;23.51;48.50;95587.53;10389207;28;1897;-68
2023/07/05 15:42:41;;;;;;;;;;;;;;;23.51;48.37;95585.69;10389621;28;4217;-68
2023/07/05 15:47:41;;;;;;;;;;;;;;;23.50;48.39;95578.81;10383224;28;1983;-69
2023/07/05 15:52:42;;;;;;;;;;;;;;;23.51;48.21;95580.38;10392672;28;1923;-69
2023/07/05 15:57:42;;;;;;;;;;;;;;;23.51;48.58;95575.09;10386705;28;2039;-70
2023/07/05 16:02:56;;;;;;;;;;;;;;;23.52;48.31;95581.94;10386763;28;1999;-69
2023/07/05 16:07:57;;;;;;;;;;;;;;;23.52;48.48;95589.88;10398958;28;1875;-68
2023/07/05 16:12:59;;;;;;;;;;;;;;;23.50;48.43;95581.44;10384552;28;2059;-69
2023/07/05 16:18:00;;;;;;;;;;;;;;;23.51;48.52;95577.75;10382356;28;1887;-69
2023/07/05 16:23:00;;;;;;;;;;;;;;;23.51;48.43;95585.69;10395612;28;1906;-69
2023/07/05 16:28:00;;;;;;;;;;;;;;;23.52;48.28;95583.78;10384043;28;2382;-68
2023/07/05 16:33:01;;;;;;;;;;;;;;;23.53;48.41;95583.53;10386960;28;1970;-68
2023/07/05 16:38:01;;;;;;;;;;;;;;;23.54;48.46;95579.00;10388435;28;1916;-68
2023/07/05 16:43:01;;;;;;;;;;;;;;;23.53;48.43;95578.22;10387737;28;4407;-69
2023/07/05 16:48:01;;;;;;;;;;;;;;;23.54;48.70;95576.34;10386321;28;1960;-67
2023/07/05 16:53:02;;;;;;;;;;;;;;;23.55;48.50;95572.63;10370343;28;1941;-68
2023/07/05 16:58:02;;;;;;;;;;;;;;;23.54;48.63;95579.78;10394237;28;1953;-67
2023/07/05 17:03:05;;;;;;;;;;;;;;;23.54;48.51;95574.47;10389359;28;2533;-68
2023/07/05 17:08:05;;;;;;;;;;;;;;;23.55;48.59;95564.69;10390580;28;2005;-68
2023/07/05 17:13:06;;;;;;;;;;;;;;;23.55;48.72;95565.47;10395725;28;1845;-69
2023/07/05 17:18:07;;;;;;;;;;;;;;;23.56;48.68;95571.53;10397526;28;1928;-69
2023/07/05 17:23:07;;;;;;;;;;;;;;;23.56;48.60;95564.38;10403284;28;2579;-68
2023/07/05 17:28:08;;;;;;;;;;;;;;;23.55;48.59;95565.47;10406554;28;1907;-68
2023/07/05 17:33:09;;;;;;;;;;;;;;;23.56;48.72;95582.91;10406484;28;1958;-68
2023/07/05 17:38:10;;;;;;;;;;;;;;;23.55;48.41;95581.34;10401261;28;1906;-68
2023/07/05 17:43:11;;;;;;;;;;;;;;;23.56;48.40;95577.63;10382968;28;4539;-68
2023/07/05 17:48:11;;;;;;;;;;;;;;;23.55;48.38;95570.78;10400769;28;2357;-69
2023/07/05 17:53:12;;;;;;;;;;;;;;;23.55;48.47;95573.41;10382151;28;1925;-69
2023/07/05 17:58:12;;;;;;;;;;;;;;;23.52;48.28;95581.16;10396908;28;2044;-66
2023/07/05 18:03:12;;;;;;;;;;;;;;;23.51;48.45;95582.25;10396688;28;1906;-67
2023/07/05 18:08:12;;;;;;;;;;;;;;;23.49;48.72;95584.41;10403386;28;1952;-67
2023/07/05 18:13:13;;;;;;;;;;;;;;;23.48;48.62;95591.53;10400060;28;1902;-67
2023/07/05 18:18:14;;;;;;;;;;;;;;;23.50;48.58;95601.81;10395863;28;1886;-66
2023/07/05 18:23:14;;;;;;;;;;;;;;;23.48;48.19;95603.97;10403594;28;2243;-67
2023/07/05 18:28:15;;;;;;;;;;;;;;;23.47;48.56;95600.56;10402832;28;1890;-66
2023/07/05 18:33:15;;;;;;;;;;;;;;;23.47;48.28;95608.50;10410570;28;1903;-66
2023/07/05 18:38:17;;;;;;;;;;;;;;;23.46;48.40;95599.00;10400615;28;1920;-66
2023/07/05 18:43:19;;;;;;;;;;;;;;;23.45;48.48;95610.66;10402348;28;4463;-67
2023/07/05 18:48:19;;;;;;;;;;;;;;;23.43;48.21;95613.59;10399166;28;1914;-66
2023/07/05 18:53:20;;;;;;;;;;;;;;;23.42;48.01;95622.63;10379167;28;1968;-66
2023/07/05 18:58:20;;;;;;;;;;;;;;;23.42;47.92;95635.06;10396907;28;1906;-67
2023/07/05 19:03:21;;;;;;;;;;;;;;;23.40;47.61;95647.78;10397115;28;1977;-66
2023/07/05 19:08:21;;;;;;;;;;;;;;;23.36;47.47;95652.88;10395562;28;1986;-66
2023/07/05 19:13:23;;;;;;;;;;;;;;;23.31;47.25;95655.59;10395881;28;1942;-64
2023/07/05 19:18:25;;;;;;;;;;;;;;;23.30;47.05;95658.53;10385223;28;2151;-66
2023/07/05 19:23:28;;;;;;;;;;;;;;;23.28;47.03;95685.28;10373898;28;1969;-66
2023/07/05 19:28:29;;;;;;;;;;;;;;;23.28;46.81;95689.78;10398604;28;1989;-71
2023/07/05 19:33:29;;;;;;;;;;;;;;;23.28;47.46;95703.78;10410779;28;1902;-71
2023/07/05 19:38:30;;;;;;;;;;;;;;;23.30;47.50;95712.22;10398399;28;2074;-71
2023/07/05 19:43:30;;;;;;;;;;;;;;;23.32;47.75;95717.25;10398809;28;4538;-71
2023/07/05 19:48:31;;;;;;;;;;;;;;;23.33;47.69;95726.72;10400837;28;1916;-70
2023/07/05 19:53:31;;;;;;;;;;;;;;;23.34;47.88;95730.97;10399785;28;1914;-71
2023/07/05 19:58:31;;;;;;;;;;;;;;;23.34;47.69;95736.25;10396550;28;1898;-72
2023/07/05 20:03:31;;;;;;;;;;;;;;;23.34;47.76;95738.91;10386561;28;1957;-71
2023/07/05 20:08:32;;;;;;;;;;;;;;;23.33;47.62;95745.25;10397338;28;2055;-71
2023/07/05 20:13:33;;;;;;;;;;;;;;;23.33;47.71;95747.91;10384360;28;2233;-71
2023/07/05 20:18:33;;;;;;;;;;;;;;;23.32;47.71;95743.69;10401953;28;2081;-70
2023/07/05 20:23:33;;;;;;;;;;;;;;;;;;10401666;28;2158;-70
2023/07/05 20:28:34;;;;;;;;;;;;;;;23.38;47.91;95766.34;10403500;28;1968;-71
2023/07/05 20:33:34;;;;;;;;;;;;;;;23.36;47.49;95768.50;10403983;28;1895;-71
2023/07/05 20:38:34;;;;;;;;;;;;;;;23.36;47.35;95765.84;10404838;28;1973;-70
2023/07/05 20:43:35;;;;;;;;;;;;;;;23.37;47.43;95775.31;10408078;28;4505;-70
2023/07/05 20:48:35;;;;;;;;;;;;;;;23.37;47.28;95792.00;10389438;28;1876;-70
2023/07/05 20:53:35;;;;;;;;;;;;;;;23.38;47.38;95782.22;10405768;28;2012;-69
2023/07/05 20:58:36;;;;;;;;;;;;;;;23.38;47.11;95800.72;10402683;28;1904;-70
2023/07/05 21:03:37;;;;;;;;;;;;;;;23.33;46.81;95800.78;10403253;28;1973;-68
2023/07/05 21:08:38;;;;;;;;;;;;;;;23.30;46.66;95802.16;10397089;28;1921;-69
2023/07/05 21:13:38;;;;;;;;;;;;;;;23.28;46.27;95798.22;10380836;28;1925;-69
2023/07/05 21:18:39;;;;;;;;;;;;;;;23.28;45.99;95811.44;10403677;28;1926;-67
2023/07/05 21:23:39;;;;;;;;;;;;;;;23.24;45.58;95815.75;10403323;28;2018;-67
2023/07/05 21:28:44;;;;;;;;;;;;;;;23.26;46.19;95826.81;10369496;28;2011;-67
2023/07/05 21:33:44;;;;;;;;;;;;;;;23.27;45.94;95834.44;10404600;28;1898;-67
2023/07/05 21:38:45;;;;;;;;;;;;;;;23.27;46.02;95826.50;10403053;28;2083;-68
2023/07/05 21:43:50;;;;;;;;;;;;;;;23.29;46.15;95831.50;10401157;28;4479;-67
2023/07/05 21:48:51;;;;;;;;;;;;;;;23.27;45.42;95829.16;10399366;28;2054;-67
2023/07/05 21:53:51;;;;;;;;;;;;;;;23.26;45.32;95829.47;10383006;28;1891;-67
2023/07/05 21:58:51;;;;;;;;;;;;;;;23.26;45.23;95832.09;10402152;28;1949;-68
2023/07/05 22:03:52;;;;;;;;;;;;;;;23.25;45.34;95835.81;10403784;28;1934;-68
2023/07/05 22:08:52;;;;;;;;;;;;;;;23.27;45.33;95846.88;10411938;28;1948;-67
2023/07/05 22:13:56;;;;;;;;;;;;;;;23.25;45.37;95851.66;10401401;28;1977;-68
2023/07/05 22:18:56;;;;;;;;;;;;;;;23.26;45.14;95858.56;10400586;28;2093;-68
2023/07/05 22:23:57;;;;;;;;;;;;;;;23.26;45.32;95863.84;10402388;28;1973;-68
2023/07/05 22:28:57;;;;;;;;;;;;;;;23.26;45.41;95867.28;10401213;28;2020;-67
2023/07/05 22:33:57;;;;;;;;;;;;;;;23.27;45.15;95879.41;10401576;28;1910;-67
2023/07/05 22:38:57;;;;;;;;;;;;;;;23.29;45.44;95889.69;10401043;28;1891;-67
2023/07/05 22:43:58;;;;;;;;;;;;;;;23.27;45.52;95887.34;10398186;28;4537;-68
2023/07/05 22:48:58;;;;;;;;;;;;;;;23.28;45.46;95888.94;10399300;28;2115;-67
2023/07/05 22:53:59;;;;;;;;;;;;;;;23.29;45.52;95885.19;10399066;28;1994;-68
2023/07/05 22:58:59;;;;;;;;;;;;;;;23.30;45.50;95881.50;10401840;28;2026;-68
2023/07/05 23:04:00;;;;;;;;;;;;;;;23.29;45.55;95881.75;10399298;28;2052;-68
2023/07/05 23:09:00;;;;;;;;;;;;;;;23.29;45.44;95889.69;10396158;28;2014;-68
2023/07/05 23:14:01;;;;;;;;;;;;;;;23.30;45.62;95884.16;10400604;28;1961;-68
2023/07/05 23:19:01;;;;;;;;;;;;;;;23.31;45.53;95884.91;10399862;28;2033;-67
2023/07/05 23:24:02;;;;;;;;;;;;;;;23.31;45.48;95882.25;10401153;28;1959;-67
2023/07/05 23:29:03;;;;;;;;;;;;;;;23.31;45.57;95875.13;10398645;28;1903;-67
2023/07/05 23:34:04;;;;;;;;;;;;;;;23.31;45.52;95872.47;10400707;28;1944;-67
2023/07/05 23:39:05;;;;;;;;;;;;;;;23.31;45.26;95877.75;10399562;28;1878;-67
2023/07/05 23:44:05;;;;;;;;;;;;;;;23.30;45.24;95878.06;10401267;28;4631;-67
2023/07/05 23:49:06;;;;;;;;;;;;;;;23.30;45.41;95881.50;10382652;28;1911;-68
2023/07/05 23:54:08;;;;;;;;;;;;;;;23.31;45.18;95880.41;10400701;28;2006;-67
2023/07/05 23:59:08;;;;;;;;;;;;;;;23.31;45.35;95882.25;10381241;28;2102;-68
